Terminal Aerodrome Forecast
Issued by NWS Hastings, NE

Home | Current Version | Previous Version | Text Only | Print | Product List | Glossary On
Versions: 1 2 3 4 5 6 7 8 9 10 11 12 13 14 15 16 17 18 19 20 21 22 23 24 25 26 27 28 29 30 31 32 33 34 35
000
FTUS43 KGID 120127 AAA
TAFGRI
TAF AMD
KGRI 120127Z 1201/1224 20009KT P6SM SCT080
     FM120200 27010KT P6SM SCT100
     FM120500 35015KT 3SM BR OVC010
     FM121500 01012KT P6SM OVC008
     FM122000 03009KT P6SM OVC015=

USA.gov is the U.S. government's official web portal to all federal, state and local government web resources and services.